createdAt,value
2019-06-26T00:01:31.900Z,33.64
2019-06-26T00:03:58.088Z,33.46
2019-06-26T00:06:24.294Z,33.54
2019-06-26T00:08:50.444Z,32.97
2019-06-26T00:11:16.623Z,32.99
2019-06-26T00:13:42.812Z,32.70
2019-06-26T00:16:08.971Z,32.60
2019-06-26T00:18:35.139Z,32.99
2019-06-26T00:21:01.334Z,32.85
2019-06-26T00:23:27.508Z,33.03
2019-06-26T00:25:53.690Z,33.09
2019-06-26T00:28:19.864Z,32.30
2019-06-26T00:30:46.042Z,32.81
2019-06-26T00:33:12.196Z,33.30
2019-06-26T00:35:38.390Z,32.85
2019-06-26T00:38:04.572Z,32.75
2019-06-26T00:40:30.754Z,32.45
2019-06-26T00:42:56.941Z,32.94
2019-06-26T00:45:23.097Z,33.11
2019-06-26T00:47:49.279Z,32.67
2019-06-26T00:50:15.567Z,33.07
2019-06-26T00:52:41.858Z,33.85
2019-06-26T00:55:08.381Z,33.88
2019-06-26T00:57:34.574Z,34.14
2019-06-26T01:00:02.627Z,34.00
2019-06-26T01:02:28.833Z,33.71
2019-06-26T01:04:59.709Z,33.91
2019-06-26T01:07:25.866Z,33.87
2019-06-26T01:09:52.038Z,33.65
2019-06-26T01:12:18.228Z,33.94
2019-06-26T01:14:44.375Z,33.35
2019-06-26T01:17:10.554Z,32.75
2019-06-26T01:19:37.069Z,32.74
2019-06-26T01:22:03.493Z,32.85
2019-06-26T01:24:29.672Z,33.05
2019-06-26T01:26:55.985Z,33.60
2019-06-26T01:29:22.134Z,33.76
2019-06-26T01:31:48.321Z,33.57
2019-06-26T01:34:14.521Z,33.14
2019-06-26T01:36:40.669Z,33.52
2019-06-26T01:39:06.844Z,33.79
2019-06-26T01:41:33.081Z,33.94
2019-06-26T01:44:13.684Z,33.55
2019-06-26T01:46:27.369Z,33.63
2019-06-26T01:48:53.567Z,33.14
2019-06-26T01:51:19.747Z,33.73
2019-06-26T01:53:45.969Z,33.62
2019-06-26T01:56:12.257Z,33.43
2019-06-26T01:58:38.416Z,33.47
2019-06-26T02:01:04.687Z,32.76
2019-06-26T02:03:30.893Z,32.72
2019-06-26T02:05:57.042Z,33.16
2019-06-26T02:08:23.314Z,32.87
2019-06-26T02:10:49.592Z,33.04
2019-06-26T02:13:15.797Z,33.74
2019-06-26T02:15:41.993Z,33.13
2019-06-26T02:20:48.947Z,32.10
2019-06-26T02:23:15.164Z,32.51
2019-06-26T02:25:41.337Z,32.65
2019-06-26T02:28:07.487Z,32.44
2019-06-26T02:30:33.699Z,32.35
2019-06-26T02:32:59.856Z,32.39
2019-06-26T02:35:26.004Z,31.90
2019-06-26T02:37:52.206Z,32.90
2019-06-26T02:40:19.076Z,31.73
2019-06-26T02:42:45.231Z,31.49
2019-06-26T02:45:12.022Z,32.55
2019-06-26T02:47:38.204Z,33.07
2019-06-26T02:50:05.681Z,33.21
2019-06-26T02:52:31.903Z,33.30
2019-06-26T02:54:58.136Z,32.78
2019-06-26T02:57:24.348Z,33.00
2019-06-26T02:59:50.581Z,32.60
2019-06-26T03:02:16.851Z,32.35
2019-06-26T03:04:42.994Z,32.59
2019-06-26T03:07:09.263Z,32.65
2019-06-26T03:09:35.416Z,32.90
2019-06-26T03:12:01.618Z,32.44
2019-06-26T03:14:27.845Z,31.97
2019-06-26T03:16:54.002Z,32.77
2019-06-26T03:19:20.164Z,33.25
2019-06-26T03:21:46.531Z,32.88
2019-06-26T03:24:12.758Z,32.89
2019-06-26T03:26:38.927Z,31.99
2019-06-26T03:29:05.253Z,32.47
2019-06-26T03:31:31.366Z,31.83
2019-06-26T03:33:57.527Z,32.69
2019-06-26T03:36:23.744Z,32.68
2019-06-26T03:38:50.034Z,32.52
2019-06-26T03:41:16.173Z,32.00
2019-06-26T03:43:42.358Z,32.90
2019-06-26T03:46:08.603Z,32.93
2019-06-26T03:48:34.825Z,32.28
2019-06-26T03:51:01.166Z,32.29
2019-06-26T03:53:27.599Z,32.09
2019-06-26T03:55:53.968Z,32.21
2019-06-26T03:58:20.183Z,33.23
2019-06-26T04:00:46.385Z,32.65
2019-06-26T04:03:12.550Z,33.71
2019-06-26T04:05:38.765Z,33.20
2019-06-26T04:08:05.166Z,32.51
2019-06-26T04:10:31.520Z,33.82
2019-06-26T04:12:57.720Z,33.66
2019-06-26T04:15:23.953Z,33.11
2019-06-26T04:17:50.108Z,33.49
2019-06-26T04:20:16.347Z,33.54
2019-06-26T04:22:42.660Z,33.09
2019-06-26T04:25:08.896Z,32.30
2019-06-26T04:27:35.108Z,33.50
2019-06-26T04:30:01.331Z,33.53
2019-06-26T04:32:27.478Z,34.04
2019-06-26T04:34:54.627Z,33.68
2019-06-26T04:37:21.029Z,33.60
2019-06-26T04:39:47.189Z,34.23
2019-06-26T04:42:13.386Z,33.89
2019-06-26T04:44:39.614Z,33.17
2019-06-26T04:47:05.770Z,33.69
2019-06-26T04:49:32.073Z,34.45
2019-06-26T04:51:58.294Z,33.59
2019-06-26T04:54:24.455Z,33.82
2019-06-26T04:56:50.666Z,34.20
2019-06-26T04:59:16.993Z,34.14
2019-06-26T05:01:43.224Z,34.25
2019-06-26T05:04:09.500Z,35.06
2019-06-26T05:06:35.732Z,34.39
2019-06-26T05:09:01.991Z,33.30
2019-06-26T05:11:28.186Z,33.75
2019-06-26T05:13:54.449Z,34.91
2019-06-26T05:16:20.799Z,35.42
2019-06-26T05:18:47.072Z,35.92
2019-06-26T05:21:13.239Z,34.42
2019-06-26T05:23:39.483Z,34.23
2019-06-26T05:26:05.650Z,34.12
2019-06-26T05:28:31.923Z,34.31
2019-06-26T05:30:58.148Z,34.56
2019-06-26T05:33:24.591Z,35.43
2019-06-26T05:35:50.805Z,35.14
2019-06-26T05:38:16.961Z,35.62
2019-06-26T05:40:43.153Z,35.71
2019-06-26T05:43:09.386Z,37.37
2019-06-26T05:45:35.545Z,36.92
2019-06-26T05:48:01.766Z,35.43
2019-06-26T05:50:28.539Z,35.50
2019-06-26T05:52:54.689Z,36.06
2019-06-26T05:55:20.871Z,36.90
2019-06-26T05:57:48.502Z,36.36
2019-06-26T06:00:15.793Z,35.85
2019-06-26T06:02:41.967Z,36.53
2019-06-26T06:05:08.977Z,35.47
2019-06-26T06:07:35.103Z,35.47
2019-06-26T06:10:01.487Z,33.73
2019-06-26T06:12:27.660Z,34.75
2019-06-26T06:14:53.836Z,35.48
2019-06-26T06:17:20.033Z,35.78
2019-06-26T06:19:46.194Z,36.74
2019-06-26T06:22:12.365Z,37.33
2019-06-26T06:24:38.576Z,37.32
2019-06-26T06:27:04.725Z,36.96
2019-06-26T06:29:30.981Z,37.95
2019-06-26T06:31:57.180Z,38.22
2019-06-26T06:34:23.360Z,38.28
2019-06-26T06:36:49.543Z,37.97
2019-06-26T06:39:15.741Z,37.95
2019-06-26T06:41:43.452Z,38.20
2019-06-26T06:44:09.972Z,38.26
2019-06-26T06:46:36.164Z,37.97
2019-06-26T06:49:02.326Z,37.89
2019-06-26T06:51:28.495Z,37.15
2019-06-26T06:53:54.688Z,36.54
2019-06-26T06:56:20.871Z,36.74
2019-06-26T06:58:47.102Z,36.89
2019-06-26T07:01:13.286Z,38.10
2019-06-26T07:03:39.462Z,37.41
2019-06-26T07:06:05.627Z,37.14
2019-06-26T07:08:31.825Z,36.81
2019-06-26T07:10:58.202Z,36.54
2019-06-26T07:13:24.377Z,37.68
2019-06-26T07:15:50.810Z,38.90
2019-06-26T07:18:17.150Z,38.73
2019-06-26T07:20:44.702Z,38.32
2019-06-26T07:23:11.240Z,39.88
2019-06-26T07:25:37.431Z,39.95
2019-06-26T07:28:03.642Z,40.30
2019-06-26T07:30:29.908Z,39.41
2019-06-26T07:32:56.092Z,37.18
2019-06-26T07:35:22.349Z,36.68
2019-06-26T07:37:48.646Z,37.53
2019-06-26T07:40:15.923Z,38.75
2019-06-26T07:42:42.401Z,39.22
2019-06-26T07:45:09.789Z,39.74
2019-06-26T07:47:43.356Z,39.71
2019-06-26T07:50:05.324Z,37.56
2019-06-26T07:52:31.637Z,39.73
2019-06-26T07:54:57.781Z,40.12
2019-06-26T07:57:23.935Z,38.60
2019-06-26T07:59:50.215Z,38.63
2019-06-26T08:02:16.373Z,38.61
2019-06-26T08:04:42.547Z,37.68
2019-06-26T08:07:08.764Z,39.33
2019-06-26T08:09:34.901Z,39.90
2019-06-26T08:12:01.078Z,38.82
2019-06-26T08:14:27.269Z,39.07
2019-06-26T08:16:53.597Z,39.99
2019-06-26T08:19:19.779Z,39.83
2019-06-26T08:21:46.844Z,40.16
2019-06-26T08:24:13.290Z,40.03
2019-06-26T08:26:39.509Z,40.14
2019-06-26T08:29:05.768Z,39.94
2019-06-26T08:31:31.921Z,38.58
2019-06-26T08:34:00.511Z,37.35
2019-06-26T08:36:26.771Z,37.74
2019-06-26T08:38:52.928Z,39.49
2019-06-26T08:41:19.122Z,39.86
2019-06-26T08:43:45.289Z,39.38
2019-06-26T08:46:11.443Z,39.39
2019-06-26T08:48:40.259Z,39.68
2019-06-26T08:51:05.720Z,39.74
2019-06-26T08:53:31.868Z,39.04
2019-06-26T08:55:58.025Z,40.39
2019-06-26T08:58:24.234Z,40.20
2019-06-26T09:00:50.562Z,40.28
2019-06-26T09:03:16.754Z,41.47
2019-06-26T09:05:48.122Z,41.00
2019-06-26T09:08:11.168Z,42.05
2019-06-26T09:10:37.473Z,41.92
2019-06-26T09:13:04.643Z,42.63
2019-06-26T09:15:30.819Z,41.71
2019-06-26T09:17:57.057Z,40.94
2019-06-26T09:20:37.978Z,41.10
2019-06-26T09:23:04.137Z,39.54
2019-06-26T09:25:30.300Z,41.38
2019-06-26T09:27:56.497Z,42.96
2019-06-26T09:30:22.650Z,41.11
2019-06-26T09:32:48.815Z,41.88
2019-06-26T09:35:15.019Z,41.32
2019-06-26T09:37:41.266Z,41.72
2019-06-26T09:40:08.544Z,40.11
2019-06-26T09:42:37.806Z,38.65
2019-06-26T09:45:05.666Z,39.60
2019-06-26T09:47:31.833Z,41.51
2019-06-26T09:49:58.057Z,40.88
2019-06-26T09:52:24.217Z,39.97
2019-06-26T09:54:50.368Z,41.24
2019-06-26T09:57:16.581Z,42.34
2019-06-26T09:59:43.723Z,40.94
2019-06-26T10:02:09.980Z,41.19
2019-06-26T10:04:36.182Z,41.39
2019-06-26T10:07:02.336Z,41.26
2019-06-26T10:09:28.501Z,39.67
2019-06-26T10:11:54.895Z,42.26
2019-06-26T10:14:21.064Z,41.91
2019-06-26T10:16:47.222Z,40.15
2019-06-26T10:19:13.930Z,41.35
2019-06-26T10:21:40.066Z,42.49
2019-06-26T10:24:06.229Z,42.49
2019-06-26T10:26:32.803Z,43.14
2019-06-26T10:28:59.230Z,44.08
2019-06-26T10:31:25.393Z,44.33
2019-06-26T10:33:51.615Z,42.67
2019-06-26T10:36:17.798Z,41.85
2019-06-26T10:38:43.963Z,42.88
2019-06-26T10:41:10.180Z,42.28
2019-06-26T10:43:36.356Z,41.82
2019-06-26T10:46:03.623Z,40.70
2019-06-26T10:48:29.929Z,42.18
2019-06-26T10:50:58.837Z,44.68
2019-06-26T10:53:24.264Z,43.27
2019-06-26T10:55:50.476Z,43.64
2019-06-26T10:58:16.649Z,42.35
2019-06-26T11:00:42.825Z,42.71
2019-06-26T11:03:09.033Z,44.22
2019-06-26T11:05:35.221Z,42.29
2019-06-26T11:08:01.378Z,41.33
2019-06-26T11:10:27.592Z,42.02
2019-06-26T11:12:53.778Z,42.69
2019-06-26T11:15:19.952Z,43.42
2019-06-26T11:17:46.196Z,43.18
2019-06-26T11:20:12.871Z,43.67
2019-06-26T11:22:39.287Z,45.05
2019-06-26T11:25:06.427Z,44.25
2019-06-26T11:27:32.610Z,43.91
2019-06-26T11:29:58.765Z,42.41
2019-06-26T11:32:26.824Z,42.45
2019-06-26T11:34:53.022Z,41.60
2019-06-26T11:37:22.816Z,40.82
2019-06-26T11:39:47.482Z,41.53
2019-06-26T11:42:13.700Z,41.90
2019-06-26T11:44:39.922Z,42.94
2019-06-26T11:47:09.168Z,40.73
2019-06-26T11:49:35.325Z,43.24
2019-06-26T11:52:01.522Z,42.66
2019-06-26T11:54:27.812Z,43.89
2019-06-26T11:56:53.980Z,44.75
2019-06-26T11:59:20.128Z,46.14
2019-06-26T12:01:46.346Z,45.79
2019-06-26T12:04:12.584Z,46.50
2019-06-26T12:06:38.721Z,45.11
2019-06-26T12:09:06.635Z,46.23
2019-06-26T12:11:32.918Z,45.37
2019-06-26T12:13:59.093Z,44.76
2019-06-26T12:16:25.302Z,44.77
2019-06-26T12:18:51.452Z,42.33
2019-06-26T12:21:17.620Z,41.30
2019-06-26T12:23:47.418Z,40.79
2019-06-26T12:26:13.877Z,39.25
2019-06-26T12:28:43.015Z,39.10
2019-06-26T12:31:09.195Z,39.00
2019-06-26T12:33:35.386Z,38.62
2019-06-26T12:36:01.541Z,40.36
2019-06-26T12:38:27.744Z,41.86
2019-06-26T12:40:53.905Z,41.48
2019-06-26T12:43:20.263Z,40.82
2019-06-26T12:45:46.502Z,41.32
2019-06-26T12:48:16.013Z,41.21
2019-06-26T12:50:40.752Z,41.46
2019-06-26T12:53:06.942Z,41.90
2019-06-26T12:55:33.303Z,41.66
2019-06-26T12:58:12.561Z,40.59
2019-06-26T13:00:27.571Z,41.85
2019-06-26T13:02:53.740Z,41.57
2019-06-26T13:05:19.972Z,41.37
2019-06-26T13:07:46.150Z,40.87
2019-06-26T13:10:12.699Z,38.91
2019-06-26T13:12:40.958Z,37.96
2019-06-26T13:15:08.735Z,37.60
2019-06-26T13:17:34.907Z,37.68
2019-06-26T13:20:01.426Z,36.95
2019-06-26T13:22:27.659Z,38.04
2019-06-26T13:24:53.828Z,37.91
2019-06-26T13:27:19.979Z,38.86
2019-06-26T13:29:46.172Z,39.64
2019-06-26T13:32:12.334Z,39.40
2019-06-26T13:34:38.480Z,39.38
2019-06-26T13:37:07.320Z,39.21
2019-06-26T13:39:32.752Z,38.96
2019-06-26T13:41:59.021Z,34.44
2019-06-26T13:44:25.358Z,33.68
2019-06-26T13:46:51.505Z,35.34
2019-06-26T13:49:17.681Z,37.86
2019-06-26T13:51:43.859Z,37.21
2019-06-26T13:54:10.075Z,35.28
2019-06-26T13:56:36.303Z,36.29
2019-06-26T13:59:02.519Z,35.14
2019-06-26T14:01:29.085Z,35.41
2019-06-26T14:03:55.254Z,35.88
2019-06-26T14:06:21.456Z,34.65
2019-06-26T14:08:47.613Z,34.64
2019-06-26T14:11:13.781Z,34.32
2019-06-26T14:13:41.890Z,32.75
2019-06-26T14:16:08.075Z,32.77
2019-06-26T14:18:34.230Z,33.69
2019-06-26T14:21:00.524Z,32.10
2019-06-26T14:23:26.768Z,31.37
2019-06-26T14:25:52.947Z,32.75
2019-06-26T14:28:19.837Z,34.12
2019-06-26T14:30:46.317Z,34.28
2019-06-26T14:33:12.480Z,35.75
2019-06-26T14:35:38.674Z,34.35
2019-06-26T14:38:04.835Z,34.41
2019-06-26T14:40:30.997Z,34.03
2019-06-26T14:42:57.182Z,33.76
2019-06-26T14:45:23.446Z,33.37
2019-06-26T14:47:49.620Z,32.03
2019-06-26T14:50:16.507Z,32.48
2019-06-26T14:52:45.847Z,33.50
2019-06-26T14:55:19.252Z,34.03
2019-06-26T14:57:52.035Z,33.50
2019-06-26T15:00:18.770Z,32.59
2019-06-26T15:02:44.974Z,32.45
2019-06-26T15:05:12.545Z,32.31
2019-06-26T15:07:38.754Z,31.77
2019-06-26T15:10:07.070Z,32.56
2019-06-26T15:12:33.231Z,32.38
2019-06-26T15:14:59.380Z,32.52
2019-06-26T15:17:25.656Z,31.83
2019-06-26T15:19:51.855Z,32.27
2019-06-26T15:22:18.009Z,33.04
2019-06-26T15:24:44.278Z,31.78
2019-06-26T15:27:10.485Z,32.45
2019-06-26T15:29:36.639Z,32.84
2019-06-26T15:32:02.861Z,35.41
2019-06-26T15:34:29.037Z,34.74
2019-06-26T15:36:55.217Z,33.58
2019-06-26T15:39:21.419Z,34.39
2019-06-26T15:41:47.703Z,33.52
2019-06-26T15:44:13.877Z,32.69
2019-06-26T15:46:40.073Z,33.10
2019-06-26T15:49:06.254Z,33.60
2019-06-26T15:51:32.405Z,32.98
2019-06-26T15:54:00.053Z,33.00
2019-06-26T15:56:26.579Z,33.26
2019-06-26T15:58:52.741Z,32.55
2019-06-26T16:01:18.955Z,32.92
2019-06-26T16:03:45.142Z,33.86
2019-06-26T16:06:11.316Z,32.07
2019-06-26T16:08:37.559Z,33.04
2019-06-26T16:11:03.713Z,33.96
2019-06-26T16:13:29.857Z,34.52
2019-06-26T16:15:56.083Z,35.46
2019-06-26T16:18:26.914Z,34.98
2019-06-26T16:20:53.063Z,34.05
2019-06-26T16:23:19.476Z,34.31
2019-06-26T16:25:45.646Z,34.94
2019-06-26T16:28:11.807Z,36.01
2019-06-26T16:30:38.021Z,36.70
2019-06-26T16:33:04.212Z,35.17
2019-06-26T16:35:30.367Z,35.21
2019-06-26T16:37:56.557Z,35.63
2019-06-26T16:40:22.731Z,36.00
2019-06-26T16:42:49.006Z,35.43
2019-06-26T16:45:15.703Z,34.42
2019-06-26T16:47:41.869Z,35.08
2019-06-26T16:50:08.224Z,34.70
2019-06-26T16:52:47.905Z,33.97
2019-06-26T16:55:04.829Z,34.79
2019-06-26T16:57:31.005Z,33.60
2019-06-26T17:00:08.838Z,33.76
2019-06-26T17:02:25.235Z,34.51
2019-06-26T17:04:51.424Z,35.24
2019-06-26T17:07:18.399Z,34.48
2019-06-26T17:09:44.577Z,33.69
2019-06-26T17:12:10.745Z,33.40
2019-06-26T17:14:37.057Z,32.39
2019-06-26T17:17:03.235Z,33.70
2019-06-26T17:19:29.387Z,33.84
2019-06-26T17:21:55.572Z,34.77
2019-06-26T17:24:21.757Z,35.86
2019-06-26T17:26:47.910Z,36.25
2019-06-26T17:29:14.114Z,36.58
2019-06-26T17:31:40.312Z,36.89
2019-06-26T17:34:09.015Z,37.02
2019-06-26T17:36:35.198Z,36.20
2019-06-26T17:39:01.379Z,36.70
2019-06-26T17:41:27.568Z,36.67
2019-06-26T17:43:53.756Z,36.83
2019-06-26T17:46:19.927Z,37.01
2019-06-26T17:48:46.082Z,37.01
2019-06-26T17:51:12.328Z,36.96
2019-06-26T17:53:38.522Z,36.31
2019-06-26T17:56:04.877Z,36.20
2019-06-26T17:58:33.636Z,35.83
2019-06-26T18:00:59.891Z,36.45
2019-06-26T18:03:26.075Z,36.12
2019-06-26T18:05:52.533Z,36.29
2019-06-26T18:08:19.018Z,36.50
2019-06-26T18:10:47.209Z,36.68
2019-06-26T18:13:13.381Z,36.19
2019-06-26T18:15:39.525Z,36.19
2019-06-26T18:18:05.697Z,36.00
2019-06-26T18:20:31.910Z,36.12
2019-06-26T18:23:07.047Z,36.03
2019-06-26T18:25:26.378Z,36.12
2019-06-26T18:27:52.599Z,35.92
2019-06-26T18:30:22.471Z,35.28
2019-06-26T18:32:47.209Z,35.06
2019-06-26T18:35:13.402Z,34.74
2019-06-26T18:37:39.686Z,35.06
2019-06-26T18:40:06.563Z,35.34
2019-06-26T18:42:32.755Z,35.07
2019-06-26T18:44:58.929Z,35.09
2019-06-26T18:47:25.084Z,34.78
2019-06-26T18:49:51.271Z,34.61
2019-06-26T18:52:17.442Z,34.58
2019-06-26T18:54:43.612Z,34.89
2019-06-26T18:57:09.802Z,34.62
2019-06-26T18:59:35.955Z,34.16
2019-06-26T19:02:02.260Z,33.98
2019-06-26T19:04:28.447Z,33.55
2019-06-26T19:06:54.622Z,33.42
2019-06-26T19:09:20.794Z,32.71
2019-06-26T19:11:47.033Z,32.75
2019-06-26T19:14:13.194Z,33.11
2019-06-26T19:16:39.365Z,33.40
2019-06-26T19:19:05.575Z,33.48
2019-06-26T19:21:31.732Z,33.33
2019-06-26T19:24:09.736Z,33.85
2019-06-26T19:26:26.302Z,32.76
2019-06-26T19:28:52.456Z,33.02
2019-06-26T19:31:18.632Z,34.02
2019-06-26T19:33:45.736Z,33.82
2019-06-26T19:36:12.108Z,33.79
2019-06-26T19:38:38.265Z,34.29
2019-06-26T19:41:08.218Z,34.73
2019-06-26T19:43:32.579Z,34.71
2019-06-26T19:45:58.801Z,33.02
2019-06-26T19:48:25.002Z,32.99
2019-06-26T19:50:51.162Z,33.24
2019-06-26T19:53:17.334Z,33.25
2019-06-26T19:55:43.522Z,33.44
2019-06-26T19:58:09.677Z,33.23
2019-06-26T20:00:35.863Z,33.82
2019-06-26T20:03:02.050Z,34.51
2019-06-26T20:05:28.727Z,34.02
2019-06-26T20:07:56.226Z,33.19
2019-06-26T20:10:27.326Z,34.32
2019-06-26T20:13:00.739Z,34.79
2019-06-26T20:15:27.985Z,35.11
2019-06-26T20:17:54.756Z,34.76
2019-06-26T20:20:23.768Z,35.01
2019-06-26T20:22:50.957Z,35.20
2019-06-26T20:25:22.659Z,35.51
2019-06-26T20:27:49.659Z,35.42
2019-06-26T20:30:21.419Z,35.55
2019-06-26T20:32:48.628Z,35.21
2019-06-26T20:35:15.266Z,34.06
2019-06-26T20:37:43.897Z,34.21
2019-06-26T20:40:14.355Z,34.20
2019-06-26T20:42:43.165Z,34.11
2019-06-26T20:45:15.217Z,33.23
2019-06-26T20:47:42.728Z,33.49
2019-06-26T20:50:09.907Z,33.19
2019-06-26T20:52:37.986Z,33.59
2019-06-26T20:55:08.149Z,33.72
2019-06-26T20:57:42.666Z,33.36
2019-06-26T21:00:11.059Z,33.72
2019-06-26T21:02:43.477Z,33.57
2019-06-26T21:05:12.355Z,33.68
2019-06-26T21:10:31.387Z,34.36
2019-06-26T21:13:04.333Z,34.25
2019-06-26T21:15:31.536Z,33.37
2019-06-26T21:18:01.525Z,33.58
2019-06-26T21:20:30.383Z,34.11
2019-06-26T21:23:00.225Z,33.93
2019-06-26T21:25:26.633Z,34.33
2019-06-26T21:27:54.799Z,34.20
2019-06-26T21:30:22.166Z,34.05
2019-06-26T21:32:51.633Z,34.32
2019-06-26T21:35:19.899Z,34.13
2019-06-26T21:37:47.965Z,34.55
2019-06-26T21:40:16.107Z,34.42
2019-06-26T21:42:42.622Z,34.56
2019-06-26T21:45:09.355Z,33.99
2019-06-26T21:47:40.564Z,34.12
2019-06-26T21:50:11.301Z,34.31
2019-06-26T21:52:37.605Z,34.11
2019-06-26T21:55:09.481Z,34.05
2019-06-26T21:57:38.725Z,34.25
2019-06-26T22:00:09.455Z,34.37
2019-06-26T22:02:35.823Z,34.44
2019-06-26T22:05:09.723Z,34.56
2019-06-26T22:07:35.912Z,34.38
2019-06-26T22:10:05.499Z,34.39
2019-06-26T22:12:31.668Z,34.42
2019-06-26T22:14:57.867Z,34.06
2019-06-26T22:17:24.012Z,34.02
2019-06-26T22:19:50.266Z,33.96
2019-06-26T22:22:16.457Z,34.19
2019-06-26T22:24:42.996Z,34.20
2019-06-26T22:27:09.256Z,34.29
2019-06-26T22:29:35.445Z,34.35
2019-06-26T22:32:01.713Z,34.33
2019-06-26T22:34:27.867Z,34.14
2019-06-26T22:36:54.244Z,33.80
2019-06-26T22:39:20.602Z,33.95
2019-06-26T22:41:46.764Z,33.55
2019-06-26T22:44:13.058Z,33.72
2019-06-26T22:46:39.223Z,33.78
2019-06-26T22:49:05.396Z,33.91
2019-06-26T22:51:31.633Z,34.08
2019-06-26T22:53:57.871Z,34.18
2019-06-26T22:56:24.366Z,34.23
2019-06-26T22:58:50.614Z,34.16
2019-06-26T23:01:16.874Z,34.27
2019-06-26T23:03:43.079Z,34.23
2019-06-26T23:06:09.277Z,33.70
2019-06-26T23:08:35.543Z,33.66
2019-06-26T23:11:01.771Z,33.73
2019-06-26T23:13:27.992Z,33.59
2019-06-26T23:15:54.155Z,33.68
2019-06-26T23:18:20.457Z,33.80
2019-06-26T23:20:46.652Z,33.85
2019-06-26T23:23:12.910Z,33.93
2019-06-26T23:25:39.137Z,33.99
2019-06-26T23:28:05.359Z,33.84
2019-06-26T23:30:31.520Z,33.87
2019-06-26T23:32:57.722Z,33.88
2019-06-26T23:35:24.053Z,33.78
2019-06-26T23:37:50.271Z,33.93
2019-06-26T23:40:16.505Z,33.87
2019-06-26T23:42:42.726Z,33.90
2019-06-26T23:45:09.591Z,33.81
2019-06-26T23:47:35.803Z,33.73
2019-06-26T23:50:03.198Z,33.67
2019-06-26T23:52:29.487Z,33.53
2019-06-26T23:54:55.717Z,33.62
2019-06-26T23:57:21.910Z,33.60
2019-06-26T23:59:48.171Z,33.72
